sensor_id;sensor_type;location;lat;lon;timestamp;temperature;humidity
31542;DHT22;18152;49.986;8.646;2023-08-30T00:02:18;12.60;99.90
31542;DHT22;18152;49.986;8.646;2023-08-30T00:04:43;12.70;99.90
31542;DHT22;18152;49.986;8.646;2023-08-30T00:07:09;12.70;99.90
31542;DHT22;18152;49.986;8.646;2023-08-30T00:09:36;12.80;99.90
31542;DHT22;18152;49.986;8.646;2023-08-30T00:12:02;12.80;99.90
31542;DHT22;18152;49.986;8.646;2023-08-30T00:14:28;12.80;99.90
31542;DHT22;18152;49.986;8.646;2023-08-30T00:16:53;12.70;99.90
31542;DHT22;18152;49.986;8.646;2023-08-30T00:19:19;12.70;99.90
31542;DHT22;18152;49.986;8.646;2023-08-30T00:21:45;12.60;99.90
31542;DHT22;18152;49.986;8.646;2023-08-30T00:24:10;12.70;99.90
31542;DHT22;18152;49.986;8.646;2023-08-30T00:26:36;12.80;99.90
31542;DHT22;18152;49.986;8.646;2023-08-30T00:29:01;12.80;99.90
31542;DHT22;18152;49.986;8.646;2023-08-30T00:31:27;12.80;99.90
31542;DHT22;18152;49.986;8.646;2023-08-30T00:33:52;12.80;99.90
31542;DHT22;18152;49.986;8.646;2023-08-30T00:36:18;12.70;99.90
31542;DHT22;18152;49.986;8.646;2023-08-30T00:38:44;12.70;99.90
31542;DHT22;18152;49.986;8.646;2023-08-30T00:41:10;12.70;99.90
31542;DHT22;18152;49.986;8.646;2023-08-30T00:43:35;12.70;99.90
31542;DHT22;18152;49.986;8.646;2023-08-30T00:46:01;12.70;99.90
31542;DHT22;18152;49.986;8.646;2023-08-30T00:48:28;12.70;99.90
31542;DHT22;18152;49.986;8.646;2023-08-30T00:50:53;12.80;99.90
31542;DHT22;18152;49.986;8.646;2023-08-30T00:53:19;12.90;99.90
31542;DHT22;18152;49.986;8.646;2023-08-30T00:55:45;12.90;99.90
31542;DHT22;18152;49.986;8.646;2023-08-30T00:58:11;12.90;99.90
31542;DHT22;18152;49.986;8.646;2023-08-30T01:00:37;13.00;99.90
31542;DHT22;18152;49.986;8.646;2023-08-30T01:03:03;13.00;99.90
31542;DHT22;18152;49.986;8.646;2023-08-30T01:05:30;12.90;99.90
31542;DHT22;18152;49.986;8.646;2023-08-30T01:07:56;12.90;99.90
31542;DHT22;18152;49.986;8.646;2023-08-30T01:10:44;12.80;99.90
31542;DHT22;18152;49.986;8.646;2023-08-30T01:13:14;12.80;99.90
31542;DHT22;18152;49.986;8.646;2023-08-30T01:15:42;12.90;99.90
31542;DHT22;18152;49.986;8.646;2023-08-30T01:18:09;12.90;99.90
31542;DHT22;18152;49.986;8.646;2023-08-30T01:20:37;13.00;99.90
31542;DHT22;18152;49.986;8.646;2023-08-30T01:25:57;13.00;99.90
31542;DHT22;18152;49.986;8.646;2023-08-30T01:28:24;12.90;99.90
31542;DHT22;18152;49.986;8.646;2023-08-30T01:30:52;12.80;99.90
31542;DHT22;18152;49.986;8.646;2023-08-30T01:33:23;12.80;99.90
31542;DHT22;18152;49.986;8.646;2023-08-30T01:35:48;12.80;99.90
31542;DHT22;18152;49.986;8.646;2023-08-30T01:38:14;12.80;99.90
31542;DHT22;18152;49.986;8.646;2023-08-30T01:40:42;12.80;99.90
31542;DHT22;18152;49.986;8.646;2023-08-30T01:43:09;12.90;99.90
31542;DHT22;18152;49.986;8.646;2023-08-30T01:45:39;12.90;99.90
31542;DHT22;18152;49.986;8.646;2023-08-30T01:48:08;12.90;99.90
31542;DHT22;18152;49.986;8.646;2023-08-30T01:50:34;12.90;99.90
31542;DHT22;18152;49.986;8.646;2023-08-30T01:53:02;12.90;99.90
31542;DHT22;18152;49.986;8.646;2023-08-30T01:55:28;13.00;99.90
31542;DHT22;18152;49.986;8.646;2023-08-30T01:57:54;13.00;99.90
31542;DHT22;18152;49.986;8.646;2023-08-30T02:00:20;13.10;99.90
31542;DHT22;18152;49.986;8.646;2023-08-30T02:02:47;13.10;99.90
31542;DHT22;18152;49.986;8.646;2023-08-30T02:05:13;13.10;99.90
31542;DHT22;18152;49.986;8.646;2023-08-30T02:07:54;13.20;99.90
31542;DHT22;18152;49.986;8.646;2023-08-30T02:10:27;13.10;99.90
31542;DHT22;18152;49.986;8.646;2023-08-30T02:12:54;13.00;99.90
31542;DHT22;18152;49.986;8.646;2023-08-30T02:15:21;13.10;99.90
31542;DHT22;18152;49.986;8.646;2023-08-30T02:17:49;13.00;99.90
31542;DHT22;18152;49.986;8.646;2023-08-30T02:20:15;13.00;99.90
31542;DHT22;18152;49.986;8.646;2023-08-30T02:22:41;12.90;99.90
31542;DHT22;18152;49.986;8.646;2023-08-30T02:25:07;12.90;99.90
31542;DHT22;18152;49.986;8.646;2023-08-30T02:27:33;12.90;99.90
31542;DHT22;18152;49.986;8.646;2023-08-30T02:30:00;12.90;99.90
31542;DHT22;18152;49.986;8.646;2023-08-30T02:32:25;13.00;99.90
31542;DHT22;18152;49.986;8.646;2023-08-30T02:34:52;13.00;99.90
31542;DHT22;18152;49.986;8.646;2023-08-30T02:37:18;13.00;99.90
31542;DHT22;18152;49.986;8.646;2023-08-30T02:39:44;13.10;99.90
31542;DHT22;18152;49.986;8.646;2023-08-30T02:42:10;13.20;99.90
31542;DHT22;18152;49.986;8.646;2023-08-30T02:44:35;13.20;99.90
31542;DHT22;18152;49.986;8.646;2023-08-30T02:47:01;13.30;99.90
31542;DHT22;18152;49.986;8.646;2023-08-30T02:49:26;13.30;99.90
31542;DHT22;18152;49.986;8.646;2023-08-30T02:51:52;13.40;99.90
31542;DHT22;18152;49.986;8.646;2023-08-30T02:54:18;13.40;99.90
31542;DHT22;18152;49.986;8.646;2023-08-30T02:56:44;13.30;99.90
31542;DHT22;18152;49.986;8.646;2023-08-30T02:59:10;13.30;99.90
31542;DHT22;18152;49.986;8.646;2023-08-30T03:01:36;13.30;99.90
31542;DHT22;18152;49.986;8.646;2023-08-30T03:04:04;13.30;99.90
31542;DHT22;18152;49.986;8.646;2023-08-30T03:06:29;13.20;99.90
31542;DHT22;18152;49.986;8.646;2023-08-30T03:08:55;13.20;99.90
31542;DHT22;18152;49.986;8.646;2023-08-30T03:11:20;13.20;99.90
31542;DHT22;18152;49.986;8.646;2023-08-30T03:13:46;13.20;99.90
31542;DHT22;18152;49.986;8.646;2023-08-30T03:16:12;13.20;99.90
31542;DHT22;18152;49.986;8.646;2023-08-30T03:18:39;13.20;99.90
31542;DHT22;18152;49.986;8.646;2023-08-30T03:21:05;13.20;99.90
31542;DHT22;18152;49.986;8.646;2023-08-30T03:23:31;13.20;99.90
31542;DHT22;18152;49.986;8.646;2023-08-30T03:25:58;13.30;99.90
31542;DHT22;18152;49.986;8.646;2023-08-30T03:28:23;13.20;99.90
31542;DHT22;18152;49.986;8.646;2023-08-30T03:30:49;13.10;99.90
31542;DHT22;18152;49.986;8.646;2023-08-30T03:33:15;13.00;99.90
31542;DHT22;18152;49.986;8.646;2023-08-30T03:35:40;13.10;99.90
31542;DHT22;18152;49.986;8.646;2023-08-30T03:38:06;13.00;99.90
31542;DHT22;18152;49.986;8.646;2023-08-30T03:40:32;13.00;99.90
31542;DHT22;18152;49.986;8.646;2023-08-30T03:42:58;13.00;99.90
31542;DHT22;18152;49.986;8.646;2023-08-30T03:45:23;13.00;99.90
31542;DHT22;18152;49.986;8.646;2023-08-30T03:47:49;13.00;99.90
31542;DHT22;18152;49.986;8.646;2023-08-30T03:50:14;13.00;99.90
31542;DHT22;18152;49.986;8.646;2023-08-30T03:52:40;13.00;99.90
31542;DHT22;18152;49.986;8.646;2023-08-30T03:55:06;13.00;99.90
31542;DHT22;18152;49.986;8.646;2023-08-30T03:57:31;13.00;99.90
31542;DHT22;18152;49.986;8.646;2023-08-30T03:59:57;13.00;99.90
31542;DHT22;18152;49.986;8.646;2023-08-30T04:02:22;13.20;99.90
31542;DHT22;18152;49.986;8.646;2023-08-30T04:04:48;13.20;99.90
31542;DHT22;18152;49.986;8.646;2023-08-30T04:07:14;13.10;99.90
31542;DHT22;18152;49.986;8.646;2023-08-30T04:09:40;13.10;99.90
31542;DHT22;18152;49.986;8.646;2023-08-30T04:12:06;13.00;99.90
31542;DHT22;18152;49.986;8.646;2023-08-30T04:14:32;13.10;99.90
31542;DHT22;18152;49.986;8.646;2023-08-30T04:16:57;13.10;99.90
31542;DHT22;18152;49.986;8.646;2023-08-30T04:19:23;13.20;99.90
31542;DHT22;18152;49.986;8.646;2023-08-30T04:21:48;13.20;99.90
31542;DHT22;18152;49.986;8.646;2023-08-30T04:24:15;13.20;99.90
31542;DHT22;18152;49.986;8.646;2023-08-30T04:26:41;13.20;99.90
31542;DHT22;18152;49.986;8.646;2023-08-30T04:29:06;13.20;99.90
31542;DHT22;18152;49.986;8.646;2023-08-30T04:31:32;13.30;99.90
31542;DHT22;18152;49.986;8.646;2023-08-30T04:33:58;13.20;99.90
31542;DHT22;18152;49.986;8.646;2023-08-30T04:36:23;13.10;99.90
31542;DHT22;18152;49.986;8.646;2023-08-30T04:38:49;13.10;99.90
31542;DHT22;18152;49.986;8.646;2023-08-30T04:41:14;13.10;99.90
31542;DHT22;18152;49.986;8.646;2023-08-30T04:43:40;13.10;99.90
31542;DHT22;18152;49.986;8.646;2023-08-30T04:46:05;13.10;99.90
31542;DHT22;18152;49.986;8.646;2023-08-30T04:48:31;13.10;99.90
31542;DHT22;18152;49.986;8.646;2023-08-30T04:51:03;13.10;99.90
31542;DHT22;18152;49.986;8.646;2023-08-30T04:53:29;13.10;99.90
31542;DHT22;18152;49.986;8.646;2023-08-30T04:55:55;13.10;99.90
31542;DHT22;18152;49.986;8.646;2023-08-30T04:58:20;13.10;99.90
31542;DHT22;18152;49.986;8.646;2023-08-30T05:00:46;13.10;99.90
31542;DHT22;18152;49.986;8.646;2023-08-30T05:03:12;13.30;99.90
31542;DHT22;18152;49.986;8.646;2023-08-30T05:05:37;13.30;99.90
31542;DHT22;18152;49.986;8.646;2023-08-30T05:08:03;13.30;99.90
31542;DHT22;18152;49.986;8.646;2023-08-30T05:10:29;13.40;99.90
31542;DHT22;18152;49.986;8.646;2023-08-30T05:12:55;13.30;99.90
31542;DHT22;18152;49.986;8.646;2023-08-30T05:15:20;13.30;99.90
31542;DHT22;18152;49.986;8.646;2023-08-30T05:17:46;13.40;99.90
31542;DHT22;18152;49.986;8.646;2023-08-30T05:20:12;13.50;99.90
31542;DHT22;18152;49.986;8.646;2023-08-30T05:22:38;13.50;99.90
31542;DHT22;18152;49.986;8.646;2023-08-30T05:25:04;13.60;99.90
31542;DHT22;18152;49.986;8.646;2023-08-30T05:27:30;13.60;99.90
31542;DHT22;18152;49.986;8.646;2023-08-30T05:29:55;13.70;99.90
31542;DHT22;18152;49.986;8.646;2023-08-30T05:32:23;13.70;99.90
31542;DHT22;18152;49.986;8.646;2023-08-30T05:34:49;13.80;99.90
31542;DHT22;18152;49.986;8.646;2023-08-30T05:37:14;13.80;99.90
31542;DHT22;18152;49.986;8.646;2023-08-30T05:39:40;13.90;99.90
31542;DHT22;18152;49.986;8.646;2023-08-30T05:42:06;13.90;99.90
31542;DHT22;18152;49.986;8.646;2023-08-30T05:44:31;13.90;99.90
31542;DHT22;18152;49.986;8.646;2023-08-30T05:46:57;14.00;99.90
31542;DHT22;18152;49.986;8.646;2023-08-30T05:49:22;14.00;99.90
31542;DHT22;18152;49.986;8.646;2023-08-30T05:51:48;14.10;99.90
31542;DHT22;18152;49.986;8.646;2023-08-30T05:54:14;14.20;99.90
31542;DHT22;18152;49.986;8.646;2023-08-30T05:56:39;14.10;99.90
31542;DHT22;18152;49.986;8.646;2023-08-30T05:59:05;14.10;99.90
31542;DHT22;18152;49.986;8.646;2023-08-30T06:01:31;14.10;99.90
31542;DHT22;18152;49.986;8.646;2023-08-30T06:03:56;14.20;99.90
31542;DHT22;18152;49.986;8.646;2023-08-30T06:06:22;14.30;99.90
31542;DHT22;18152;49.986;8.646;2023-08-30T06:08:47;14.50;99.90
31542;DHT22;18152;49.986;8.646;2023-08-30T06:11:13;14.50;99.90
31542;DHT22;18152;49.986;8.646;2023-08-30T06:13:40;14.60;99.90
31542;DHT22;18152;49.986;8.646;2023-08-30T06:16:05;14.60;99.90
31542;DHT22;18152;49.986;8.646;2023-08-30T06:18:31;14.50;99.90
31542;DHT22;18152;49.986;8.646;2023-08-30T06:20:58;14.60;99.90
31542;DHT22;18152;49.986;8.646;2023-08-30T06:23:23;14.50;99.90
31542;DHT22;18152;49.986;8.646;2023-08-30T06:25:56;14.50;99.90
31542;DHT22;18152;49.986;8.646;2023-08-30T06:28:22;14.60;99.90
31542;DHT22;18152;49.986;8.646;2023-08-30T06:30:47;14.70;99.90
31542;DHT22;18152;49.986;8.646;2023-08-30T06:33:13;14.70;99.90
31542;DHT22;18152;49.986;8.646;2023-08-30T06:35:39;15.00;99.90
31542;DHT22;18152;49.986;8.646;2023-08-30T06:38:05;15.20;99.90
31542;DHT22;18152;49.986;8.646;2023-08-30T06:40:30;15.30;99.90
31542;DHT22;18152;49.986;8.646;2023-08-30T06:42:56;15.50;99.90
31542;DHT22;18152;49.986;8.646;2023-08-30T06:45:22;15.80;99.90
31542;DHT22;18152;49.986;8.646;2023-08-30T06:47:48;16.10;99.90
31542;DHT22;18152;49.986;8.646;2023-08-30T06:50:15;16.50;99.90
31542;DHT22;18152;49.986;8.646;2023-08-30T06:52:40;16.90;99.90
31542;DHT22;18152;49.986;8.646;2023-08-30T06:55:06;17.00;99.90
31542;DHT22;18152;49.986;8.646;2023-08-30T06:57:32;17.20;99.90
31542;DHT22;18152;49.986;8.646;2023-08-30T06:59:58;17.30;99.90
31542;DHT22;18152;49.986;8.646;2023-08-30T07:02:25;16.80;99.90
31542;DHT22;18152;49.986;8.646;2023-08-30T07:04:51;16.60;99.90
31542;DHT22;18152;49.986;8.646;2023-08-30T07:07:17;16.30;99.90
31542;DHT22;18152;49.986;8.646;2023-08-30T07:09:42;16.20;99.90
31542;DHT22;18152;49.986;8.646;2023-08-30T07:12:08;16.00;99.90
31542;DHT22;18152;49.986;8.646;2023-08-30T07:14:33;16.20;99.90
31542;DHT22;18152;49.986;8.646;2023-08-30T07:16:59;16.30;99.90
31542;DHT22;18152;49.986;8.646;2023-08-30T07:19:25;16.60;99.90
31542;DHT22;18152;49.986;8.646;2023-08-30T07:21:50;16.70;99.90
31542;DHT22;18152;49.986;8.646;2023-08-30T07:24:16;17.20;99.90
31542;DHT22;18152;49.986;8.646;2023-08-30T07:26:42;17.40;99.90
31542;DHT22;18152;49.986;8.646;2023-08-30T07:29:09;17.30;99.90
31542;DHT22;18152;49.986;8.646;2023-08-30T07:31:34;17.10;99.90
31542;DHT22;18152;49.986;8.646;2023-08-30T07:34:00;17.30;99.90
31542;DHT22;18152;49.986;8.646;2023-08-30T07:36:27;17.40;99.90
31542;DHT22;18152;49.986;8.646;2023-08-30T07:38:53;17.70;99.90
31542;DHT22;18152;49.986;8.646;2023-08-30T07:41:19;17.80;99.90
31542;DHT22;18152;49.986;8.646;2023-08-30T07:43:45;17.50;99.90
31542;DHT22;18152;49.986;8.646;2023-08-30T07:46:10;17.80;99.90
31542;DHT22;18152;49.986;8.646;2023-08-30T07:48:36;18.30;99.90
31542;DHT22;18152;49.986;8.646;2023-08-30T07:51:01;18.50;99.90
31542;DHT22;18152;49.986;8.646;2023-08-30T07:53:27;18.70;99.90
31542;DHT22;18152;49.986;8.646;2023-08-30T07:55:52;18.90;99.90
31542;DHT22;18152;49.986;8.646;2023-08-30T07:58:18;19.20;99.90
31542;DHT22;18152;49.986;8.646;2023-08-30T08:00:44;19.00;99.90
31542;DHT22;18152;49.986;8.646;2023-08-30T08:03:09;18.80;99.90
31542;DHT22;18152;49.986;8.646;2023-08-30T08:05:36;18.90;99.90
31542;DHT22;18152;49.986;8.646;2023-08-30T08:08:01;18.90;99.90
31542;DHT22;18152;49.986;8.646;2023-08-30T08:10:34;18.90;99.90
31542;DHT22;18152;49.986;8.646;2023-08-30T08:13:00;18.80;99.90
31542;DHT22;18152;49.986;8.646;2023-08-30T08:15:26;18.50;99.90
31542;DHT22;18152;49.986;8.646;2023-08-30T08:17:52;18.70;99.90
31542;DHT22;18152;49.986;8.646;2023-08-30T08:20:17;19.00;99.90
31542;DHT22;18152;49.986;8.646;2023-08-30T08:22:43;19.10;99.90
31542;DHT22;18152;49.986;8.646;2023-08-30T08:25:08;19.30;99.90
31542;DHT22;18152;49.986;8.646;2023-08-30T08:27:36;19.50;99.90
31542;DHT22;18152;49.986;8.646;2023-08-30T08:30:02;19.80;99.90
31542;DHT22;18152;49.986;8.646;2023-08-30T08:32:29;19.60;99.90
31542;DHT22;18152;49.986;8.646;2023-08-30T08:34:56;19.80;99.90
31542;DHT22;18152;49.986;8.646;2023-08-30T08:37:21;20.40;99.90
31542;DHT22;18152;49.986;8.646;2023-08-30T08:39:47;20.60;99.90
31542;DHT22;18152;49.986;8.646;2023-08-30T08:42:18;20.40;99.90
31542;DHT22;18152;49.986;8.646;2023-08-30T08:44:46;20.40;99.90
31542;DHT22;18152;49.986;8.646;2023-08-30T08:47:12;20.40;99.90
31542;DHT22;18152;49.986;8.646;2023-08-30T08:49:38;20.20;99.90
31542;DHT22;18152;49.986;8.646;2023-08-30T08:52:05;19.80;99.90
31542;DHT22;18152;49.986;8.646;2023-08-30T08:54:31;19.50;99.90
31542;DHT22;18152;49.986;8.646;2023-08-30T08:56:57;19.30;99.90
31542;DHT22;18152;49.986;8.646;2023-08-30T08:59:24;19.40;99.90
31542;DHT22;18152;49.986;8.646;2023-08-30T09:01:49;19.60;99.90
31542;DHT22;18152;49.986;8.646;2023-08-30T09:04:15;19.50;99.90
31542;DHT22;18152;49.986;8.646;2023-08-30T09:06:40;19.50;99.90
31542;DHT22;18152;49.986;8.646;2023-08-30T09:09:08;19.40;99.90
31542;DHT22;18152;49.986;8.646;2023-08-30T09:11:34;19.60;99.90
31542;DHT22;18152;49.986;8.646;2023-08-30T09:14:00;20.00;99.90
31542;DHT22;18152;49.986;8.646;2023-08-30T09:16:26;20.10;99.90
31542;DHT22;18152;49.986;8.646;2023-08-30T09:18:58;20.10;99.90
31542;DHT22;18152;49.986;8.646;2023-08-30T09:21:24;20.10;99.90
31542;DHT22;18152;49.986;8.646;2023-08-30T09:24:03;19.80;99.90
31542;DHT22;18152;49.986;8.646;2023-08-30T09:26:31;19.80;99.90
31542;DHT22;18152;49.986;8.646;2023-08-30T09:29:06;19.80;99.90
31542;DHT22;18152;49.986;8.646;2023-08-30T09:31:36;19.80;99.90
31542;DHT22;18152;49.986;8.646;2023-08-30T09:34:03;19.80;99.90
31542;DHT22;18152;49.986;8.646;2023-08-30T09:36:39;19.80;99.90
31542;DHT22;18152;49.986;8.646;2023-08-30T09:39:12;19.90;99.90
31542;DHT22;18152;49.986;8.646;2023-08-30T09:41:43;20.00;99.90
31542;DHT22;18152;49.986;8.646;2023-08-30T09:44:13;19.90;99.90
31542;DHT22;18152;49.986;8.646;2023-08-30T09:46:42;19.90;99.90
31542;DHT22;18152;49.986;8.646;2023-08-30T09:49:10;20.40;99.90
31542;DHT22;18152;49.986;8.646;2023-08-30T09:51:38;20.80;99.90
31542;DHT22;18152;49.986;8.646;2023-08-30T09:54:13;21.30;99.90
31542;DHT22;18152;49.986;8.646;2023-08-30T09:56:40;21.70;99.90
31542;DHT22;18152;49.986;8.646;2023-08-30T09:59:07;22.00;99.90
31542;DHT22;18152;49.986;8.646;2023-08-30T10:01:33;22.40;99.90
31542;DHT22;18152;49.986;8.646;2023-08-30T10:04:00;22.60;99.90
31542;DHT22;18152;49.986;8.646;2023-08-30T10:06:30;21.80;99.90
31542;DHT22;18152;49.986;8.646;2023-08-30T10:08:56;21.40;99.90
31542;DHT22;18152;49.986;8.646;2023-08-30T10:11:24;21.90;99.90
31542;DHT22;18152;49.986;8.646;2023-08-30T10:13:51;22.40;99.90
31542;DHT22;18152;49.986;8.646;2023-08-30T10:16:20;22.70;99.90
31542;DHT22;18152;49.986;8.646;2023-08-30T10:18:52;22.50;99.90
31542;DHT22;18152;49.986;8.646;2023-08-30T10:21:19;22.90;99.90
31542;DHT22;18152;49.986;8.646;2023-08-30T10:23:46;23.10;99.90
31542;DHT22;18152;49.986;8.646;2023-08-30T10:26:14;22.70;99.90
31542;DHT22;18152;49.986;8.646;2023-08-30T10:28:41;22.80;99.90
31542;DHT22;18152;49.986;8.646;2023-08-30T10:31:07;22.90;99.90
31542;DHT22;18152;49.986;8.646;2023-08-30T10:33:48;22.50;99.90
31542;DHT22;18152;49.986;8.646;2023-08-30T10:36:20;23.10;99.90
31542;DHT22;18152;49.986;8.646;2023-08-30T10:38:50;23.90;99.90
31542;DHT22;18152;49.986;8.646;2023-08-30T10:41:26;24.30;99.90
31542;DHT22;18152;49.986;8.646;2023-08-30T10:43:54;24.30;99.90
31542;DHT22;18152;49.986;8.646;2023-08-30T10:46:34;24.40;99.90
31542;DHT22;18152;49.986;8.646;2023-08-30T10:49:12;25.10;99.90
31542;DHT22;18152;49.986;8.646;2023-08-30T10:51:40;25.40;99.90
31542;DHT22;18152;49.986;8.646;2023-08-30T10:54:16;24.90;99.90
31542;DHT22;18152;49.986;8.646;2023-08-30T10:57:00;25.30;99.90
31542;DHT22;18152;49.986;8.646;2023-08-30T10:59:27;24.50;99.90
31542;DHT22;18152;49.986;8.646;2023-08-30T11:01:53;24.20;99.90
31542;DHT22;18152;49.986;8.646;2023-08-30T11:04:20;24.30;99.90
31542;DHT22;18152;49.986;8.646;2023-08-30T11:06:48;24.80;99.90
31542;DHT22;18152;49.986;8.646;2023-08-30T11:09:15;25.20;99.90
31542;DHT22;18152;49.986;8.646;2023-08-30T11:11:43;25.10;99.90
31542;DHT22;18152;49.986;8.646;2023-08-30T11:14:09;24.70;99.90
31542;DHT22;18152;49.986;8.646;2023-08-30T11:16:36;24.60;99.90
31542;DHT22;18152;49.986;8.646;2023-08-30T11:19:05;24.00;99.90
31542;DHT22;18152;49.986;8.646;2023-08-30T11:21:33;23.40;99.90
31542;DHT22;18152;49.986;8.646;2023-08-30T11:23:59;23.70;99.90
31542;DHT22;18152;49.986;8.646;2023-08-30T11:26:25;23.40;99.90
31542;DHT22;18152;49.986;8.646;2023-08-30T11:28:51;22.70;99.90
31542;DHT22;18152;49.986;8.646;2023-08-30T11:31:19;22.20;99.90
31542;DHT22;18152;49.986;8.646;2023-08-30T11:33:56;22.00;99.90
31542;DHT22;18152;49.986;8.646;2023-08-30T11:36:23;21.50;99.90
31542;DHT22;18152;49.986;8.646;2023-08-30T11:38:49;21.20;99.90
31542;DHT22;18152;49.986;8.646;2023-08-30T11:41:16;20.80;99.90
31542;DHT22;18152;49.986;8.646;2023-08-30T11:43:41;20.50;99.90
31542;DHT22;18152;49.986;8.646;2023-08-30T11:46:08;20.30;99.90
31542;DHT22;18152;49.986;8.646;2023-08-30T11:48:35;20.10;99.90
31542;DHT22;18152;49.986;8.646;2023-08-30T11:51:01;20.00;99.90
31542;DHT22;18152;49.986;8.646;2023-08-30T11:53:27;19.90;99.90
31542;DHT22;18152;49.986;8.646;2023-08-30T11:55:53;19.80;99.90
31542;DHT22;18152;49.986;8.646;2023-08-30T11:58:19;19.70;99.90
31542;DHT22;18152;49.986;8.646;2023-08-30T12:00:45;19.80;99.90
31542;DHT22;18152;49.986;8.646;2023-08-30T12:03:14;19.70;99.90
31542;DHT22;18152;49.986;8.646;2023-08-30T12:05:47;19.70;99.90
31542;DHT22;18152;49.986;8.646;2023-08-30T12:08:20;19.60;99.90
31542;DHT22;18152;49.986;8.646;2023-08-30T12:10:46;19.50;99.90
31542;DHT22;18152;49.986;8.646;2023-08-30T12:13:22;19.40;99.90
31542;DHT22;18152;49.986;8.646;2023-08-30T12:15:49;19.50;99.90
31542;DHT22;18152;49.986;8.646;2023-08-30T12:18:14;19.30;99.90
31542;DHT22;18152;49.986;8.646;2023-08-30T12:20:50;19.00;99.90
31542;DHT22;18152;49.986;8.646;2023-08-30T12:23:21;19.10;99.90
31542;DHT22;18152;49.986;8.646;2023-08-30T12:26:03;19.20;99.90
31542;DHT22;18152;49.986;8.646;2023-08-30T12:28:30;19.60;99.90
31542;DHT22;18152;49.986;8.646;2023-08-30T12:30:56;20.70;99.90
31542;DHT22;18152;49.986;8.646;2023-08-30T12:33:22;21.80;99.90
31542;DHT22;18152;49.986;8.646;2023-08-30T12:35:47;22.70;99.90
31542;DHT22;18152;49.986;8.646;2023-08-30T12:38:13;22.60;99.90
31542;DHT22;18152;49.986;8.646;2023-08-30T12:40:44;23.10;99.90
31542;DHT22;18152;49.986;8.646;2023-08-30T12:43:09;23.60;99.90
31542;DHT22;18152;49.986;8.646;2023-08-30T12:45:36;23.60;99.90
31542;DHT22;18152;49.986;8.646;2023-08-30T12:48:02;23.60;99.90
31542;DHT22;18152;49.986;8.646;2023-08-30T12:50:28;23.00;99.90
31542;DHT22;18152;49.986;8.646;2023-08-30T12:52:54;23.10;99.90
31542;DHT22;18152;49.986;8.646;2023-08-30T12:55:26;23.40;99.90
31542;DHT22;18152;49.986;8.646;2023-08-30T12:57:52;23.70;99.90
31542;DHT22;18152;49.986;8.646;2023-08-30T13:00:18;23.90;99.90
31542;DHT22;18152;49.986;8.646;2023-08-30T13:02:45;23.40;98.20
31542;DHT22;18152;49.986;8.646;2023-08-30T13:05:10;23.50;99.90
31542;DHT22;18152;49.986;8.646;2023-08-30T13:07:36;23.40;99.90
31542;DHT22;18152;49.986;8.646;2023-08-30T13:10:02;23.60;99.90
31542;DHT22;18152;49.986;8.646;2023-08-30T13:12:28;23.70;99.90
31542;DHT22;18152;49.986;8.646;2023-08-30T13:14:53;23.90;99.90
31542;DHT22;18152;49.986;8.646;2023-08-30T13:17:19;23.90;99.90
31542;DHT22;18152;49.986;8.646;2023-08-30T13:19:44;23.70;99.90
31542;DHT22;18152;49.986;8.646;2023-08-30T13:22:10;23.50;99.90
31542;DHT22;18152;49.986;8.646;2023-08-30T13:24:36;23.50;99.90
31542;DHT22;18152;49.986;8.646;2023-08-30T13:27:02;23.80;99.90
31542;DHT22;18152;49.986;8.646;2023-08-30T13:29:28;23.90;99.90
31542;DHT22;18152;49.986;8.646;2023-08-30T13:31:53;23.90;99.00
31542;DHT22;18152;49.986;8.646;2023-08-30T13:34:19;23.50;99.90
31542;DHT22;18152;49.986;8.646;2023-08-30T13:36:45;23.60;99.90
31542;DHT22;18152;49.986;8.646;2023-08-30T13:39:10;23.60;99.90
31542;DHT22;18152;49.986;8.646;2023-08-30T13:41:36;23.70;99.80
31542;DHT22;18152;49.986;8.646;2023-08-30T13:44:02;23.70;99.90
31542;DHT22;18152;49.986;8.646;2023-08-30T13:46:31;23.60;99.90
31542;DHT22;18152;49.986;8.646;2023-08-30T13:48:57;23.40;97.30
31542;DHT22;18152;49.986;8.646;2023-08-30T13:51:23;23.40;96.90
31542;DHT22;18152;49.986;8.646;2023-08-30T13:53:50;23.50;99.90
31542;DHT22;18152;49.986;8.646;2023-08-30T13:56:16;23.60;99.90
31542;DHT22;18152;49.986;8.646;2023-08-30T13:58:41;23.70;99.30
31542;DHT22;18152;49.986;8.646;2023-08-30T14:01:07;23.60;98.00
31542;DHT22;18152;49.986;8.646;2023-08-30T14:03:33;23.00;99.90
31542;DHT22;18152;49.986;8.646;2023-08-30T14:05:58;22.70;99.90
31542;DHT22;18152;49.986;8.646;2023-08-30T14:08:24;22.70;99.90
31542;DHT22;18152;49.986;8.646;2023-08-30T14:10:49;22.60;99.90
31542;DHT22;18152;49.986;8.646;2023-08-30T14:13:15;22.20;99.90
31542;DHT22;18152;49.986;8.646;2023-08-30T14:15:41;21.60;99.90
31542;DHT22;18152;49.986;8.646;2023-08-30T14:18:07;21.50;99.90
31542;DHT22;18152;49.986;8.646;2023-08-30T14:20:33;21.30;99.90
31542;DHT22;18152;49.986;8.646;2023-08-30T14:22:58;21.10;99.90
31542;DHT22;18152;49.986;8.646;2023-08-30T14:25:24;21.00;99.90
31542;DHT22;18152;49.986;8.646;2023-08-30T14:27:50;20.90;99.90
31542;DHT22;18152;49.986;8.646;2023-08-30T14:30:15;20.80;99.50
31542;DHT22;18152;49.986;8.646;2023-08-30T14:32:41;20.80;99.90
31542;DHT22;18152;49.986;8.646;2023-08-30T14:35:07;20.70;99.90
31542;DHT22;18152;49.986;8.646;2023-08-30T14:37:33;20.80;99.90
31542;DHT22;18152;49.986;8.646;2023-08-30T14:40:05;21.00;99.90
31542;DHT22;18152;49.986;8.646;2023-08-30T14:42:31;21.10;99.90
31542;DHT22;18152;49.986;8.646;2023-08-30T14:44:57;21.10;99.90
31542;DHT22;18152;49.986;8.646;2023-08-30T14:47:23;21.00;99.90
31542;DHT22;18152;49.986;8.646;2023-08-30T14:49:49;20.80;99.90
31542;DHT22;18152;49.986;8.646;2023-08-30T14:52:15;20.70;99.90
31542;DHT22;18152;49.986;8.646;2023-08-30T14:54:41;20.60;99.90
31542;DHT22;18152;49.986;8.646;2023-08-30T14:57:07;20.50;99.90
31542;DHT22;18152;49.986;8.646;2023-08-30T14:59:32;20.40;99.90
31542;DHT22;18152;49.986;8.646;2023-08-30T15:01:58;20.30;99.90
31542;DHT22;18152;49.986;8.646;2023-08-30T15:04:24;20.30;99.90
31542;DHT22;18152;49.986;8.646;2023-08-30T15:06:50;20.30;99.90
31542;DHT22;18152;49.986;8.646;2023-08-30T15:09:17;20.30;99.90
31542;DHT22;18152;49.986;8.646;2023-08-30T15:11:44;20.30;99.90
31542;DHT22;18152;49.986;8.646;2023-08-30T15:14:10;20.20;99.90
31542;DHT22;18152;49.986;8.646;2023-08-30T15:16:36;20.10;99.90
31542;DHT22;18152;49.986;8.646;2023-08-30T15:19:02;20.00;99.90
31542;DHT22;18152;49.986;8.646;2023-08-30T15:21:27;20.20;99.90
31542;DHT22;18152;49.986;8.646;2023-08-30T15:23:53;20.30;99.90
31542;DHT22;18152;49.986;8.646;2023-08-30T15:26:18;20.20;99.90
31542;DHT22;18152;49.986;8.646;2023-08-30T15:28:49;20.20;99.90
31542;DHT22;18152;49.986;8.646;2023-08-30T15:31:16;20.10;99.90